createdAt,value
2018-09-02T00:00:00.776Z,0
2018-09-02T00:00:32.919Z,0
2018-09-02T00:01:05.017Z,0
2018-09-02T00:01:37.043Z,0
2018-09-02T00:02:09.075Z,0
2018-09-02T00:02:41.156Z,0
2018-09-02T00:03:14.140Z,0
2018-09-02T00:03:46.185Z,0
2018-09-02T00:04:18.193Z,0
2018-09-02T00:04:50.339Z,0
2018-09-02T00:05:22.425Z,0
2018-09-02T00:05:54.491Z,0
2018-09-02T00:06:26.565Z,0
2018-09-02T00:06:58.671Z,0
2018-09-02T00:07:30.710Z,0
2018-09-02T00:08:02.695Z,0
2018-09-02T00:08:34.792Z,0
2018-09-02T00:09:06.898Z,0
2018-09-02T00:09:38.951Z,0
2018-09-02T00:10:11.021Z,0
2018-09-02T00:10:43.062Z,0
2018-09-02T00:11:15.052Z,0
2018-09-02T00:11:47.042Z,0
2018-09-02T00:12:19.115Z,0
2018-09-02T00:12:51.168Z,0
2018-09-02T00:13:23.251Z,0
2018-09-02T00:13:55.313Z,0
2018-09-02T00:14:27.355Z,0
2018-09-02T00:14:59.422Z,0
2018-09-02T00:15:31.566Z,0
2018-09-02T00:16:03.641Z,0
2018-09-02T00:16:35.703Z,0
2018-09-02T00:17:07.753Z,0
2018-09-02T00:17:39.797Z,0
2018-09-02T00:18:11.856Z,0
2018-09-02T00:18:43.905Z,0
2018-09-02T00:19:15.955Z,0
2018-09-02T00:19:48.013Z,0
2018-09-02T00:20:20.085Z,0
2018-09-02T00:20:52.086Z,0
2018-09-02T00:21:24.211Z,0
2018-09-02T00:21:56.271Z,0
2018-09-02T00:22:28.328Z,0
2018-09-02T00:23:00.392Z,0
2018-09-02T00:23:32.569Z,0
2018-09-02T00:24:05.105Z,0
2018-09-02T00:24:37.120Z,0
2018-09-02T00:25:09.197Z,0
2018-09-02T00:25:41.229Z,0
2018-09-02T00:26:13.316Z,0
2018-09-02T00:26:45.350Z,0
2018-09-02T00:27:17.429Z,0
2018-09-02T00:27:50.232Z,0
2018-09-02T00:28:22.273Z,0
2018-09-02T00:28:54.308Z,0
2018-09-02T00:29:26.379Z,0
2018-09-02T00:29:58.393Z,0
2018-09-02T00:30:30.464Z,0
2018-09-02T00:31:02.594Z,0
2018-09-02T00:31:34.725Z,0
2018-09-02T00:32:06.772Z,0
2018-09-02T00:32:38.839Z,0
2018-09-02T00:33:11.008Z,0
2018-09-02T00:33:43.137Z,0
2018-09-02T00:34:15.123Z,0
2018-09-02T00:34:47.169Z,0
2018-09-02T00:35:19.201Z,0
2018-09-02T00:35:51.269Z,0
2018-09-02T00:36:23.321Z,0
2018-09-02T00:36:55.356Z,0
2018-09-02T00:37:27.420Z,0
2018-09-02T00:37:59.496Z,0
2018-09-02T00:38:31.666Z,0
2018-09-02T00:39:03.726Z,0
2018-09-02T00:39:35.792Z,0
2018-09-02T00:40:07.879Z,0
2018-09-02T00:40:39.933Z,0
2018-09-02T00:41:12.012Z,0
2018-09-02T00:41:44.084Z,0
2018-09-02T00:42:16.153Z,0
2018-09-02T00:42:48.228Z,0
2018-09-02T00:43:20.302Z,0
2018-09-02T00:43:52.380Z,0
2018-09-02T00:44:24.402Z,0
2018-09-02T00:44:56.495Z,0
2018-09-02T00:45:28.538Z,0
2018-09-02T00:46:00.611Z,0
2018-09-02T00:46:32.692Z,0
2018-09-02T00:47:04.747Z,0
2018-09-02T00:47:36.809Z,0
2018-09-02T00:48:08.831Z,0
2018-09-02T00:48:40.907Z,0
2018-09-02T00:49:12.984Z,0
2018-09-02T00:49:45.010Z,0
2018-09-02T00:50:17.061Z,0
2018-09-02T00:50:49.164Z,0
2018-09-02T00:51:21.248Z,0
2018-09-02T00:51:53.314Z,0
2018-09-02T00:52:25.338Z,0
2018-09-02T00:52:57.419Z,0
2018-09-02T00:53:29.545Z,0
2018-09-02T00:54:01.595Z,0
2018-09-02T00:54:33.706Z,0
2018-09-02T00:55:05.796Z,0
2018-09-02T00:55:37.845Z,0
2018-09-02T00:56:09.876Z,0
2018-09-02T00:56:41.916Z,0
2018-09-02T00:57:13.997Z,0
2018-09-02T00:57:46.055Z,0
2018-09-02T00:58:18.120Z,0
2018-09-02T00:58:50.242Z,0
2018-09-02T00:59:22.341Z,0
2018-09-02T00:59:54.383Z,0
2018-09-02T01:00:27.369Z,0
2018-09-02T01:00:59.517Z,0
2018-09-02T01:01:31.672Z,0
2018-09-02T01:02:03.735Z,0
2018-09-02T01:02:35.782Z,0
2018-09-02T01:03:07.846Z,0
2018-09-02T01:03:39.842Z,0
2018-09-02T01:04:11.819Z,0
2018-09-02T01:04:43.876Z,0
2018-09-02T01:05:15.935Z,0
2018-09-02T01:05:47.976Z,0
2018-09-02T01:06:20.031Z,0
2018-09-02T01:06:52.089Z,0
2018-09-02T01:07:24.230Z,0
2018-09-02T01:07:56.343Z,0
2018-09-02T01:08:28.351Z,0
2018-09-02T01:09:00.355Z,0
2018-09-02T01:09:32.412Z,0
2018-09-02T01:10:04.467Z,0
2018-09-02T01:10:36.545Z,0
2018-09-02T01:11:08.623Z,0
2018-09-02T01:11:40.745Z,0
2018-09-02T01:12:12.821Z,0
2018-09-02T01:12:44.883Z,0
2018-09-02T01:13:17.000Z,0
2018-09-02T01:13:49.107Z,0
2018-09-02T01:14:21.160Z,0
2018-09-02T01:14:53.175Z,0
2018-09-02T01:15:25.256Z,0
2018-09-02T01:15:57.312Z,0
2018-09-02T01:16:29.346Z,0
2018-09-02T01:17:01.371Z,0
2018-09-02T01:17:33.395Z,0
2018-09-02T01:18:05.594Z,0
2018-09-02T01:18:38.181Z,0
2018-09-02T01:19:10.273Z,0
2018-09-02T01:19:42.284Z,0
2018-09-02T01:20:14.357Z,0
2018-09-02T01:20:46.392Z,0
2018-09-02T01:21:18.423Z,0
2018-09-02T01:21:50.458Z,0
2018-09-02T01:22:22.605Z,0
2018-09-02T01:22:54.740Z,0
2018-09-02T01:23:26.748Z,0
2018-09-02T01:23:58.794Z,0
2018-09-02T01:24:30.960Z,0
2018-09-02T01:25:03.169Z,0
2018-09-02T01:25:35.196Z,0
2018-09-02T01:26:07.356Z,0
2018-09-02T01:26:39.434Z,0
2018-09-02T01:27:11.480Z,0
2018-09-02T01:27:43.541Z,0
2018-09-02T01:28:15.614Z,0
2018-09-02T01:28:47.689Z,0
2018-09-02T01:29:20.656Z,0
2018-09-02T01:29:52.712Z,0
2018-09-02T01:30:24.741Z,0
2018-09-02T01:30:56.696Z,0
2018-09-02T01:31:28.774Z,0
2018-09-02T01:32:00.972Z,0
2018-09-02T01:32:33.044Z,0
2018-09-02T01:33:05.084Z,0
2018-09-02T01:33:37.132Z,0
2018-09-02T01:34:09.213Z,0
2018-09-02T01:34:41.307Z,0
2018-09-02T01:35:13.377Z,0
2018-09-02T01:35:45.398Z,0
2018-09-02T01:36:17.483Z,0
2018-09-02T01:36:49.516Z,0
2018-09-02T01:37:21.609Z,0
2018-09-02T01:37:53.671Z,0
2018-09-02T01:38:25.733Z,0
2018-09-02T01:38:57.787Z,0
2018-09-02T01:39:29.837Z,0
2018-09-02T01:40:01.910Z,0
2018-09-02T01:40:33.958Z,0
2018-09-02T01:41:06.013Z,0
2018-09-02T01:41:38.038Z,0
2018-09-02T01:42:10.073Z,0
2018-09-02T01:42:42.145Z,0
2018-09-02T01:43:14.193Z,0
2018-09-02T01:43:46.257Z,0
2018-09-02T01:44:18.320Z,0
2018-09-02T01:44:50.385Z,0
2018-09-02T01:45:22.399Z,0
2018-09-02T01:45:54.428Z,0
2018-09-02T01:46:26.486Z,0
2018-09-02T01:46:58.502Z,0
2018-09-02T01:47:30.552Z,0
2018-09-02T01:48:02.603Z,0
2018-09-02T01:48:34.634Z,0
2018-09-02T01:49:06.694Z,0
2018-09-02T01:49:38.759Z,0
2018-09-02T01:50:10.940Z,0
2018-09-02T01:50:43.124Z,0
2018-09-02T01:51:15.195Z,0
2018-09-02T01:51:47.322Z,0
2018-09-02T01:52:19.365Z,0
2018-09-02T01:52:51.464Z,0
2018-09-02T01:53:23.575Z,0
2018-09-02T01:53:55.630Z,0
2018-09-02T01:54:27.706Z,0
2018-09-02T01:54:59.828Z,0
2018-09-02T01:55:31.854Z,0
2018-09-02T01:56:03.933Z,0
2018-09-02T01:56:35.992Z,0
2018-09-02T01:57:08.046Z,0
2018-09-02T01:57:40.091Z,0
2018-09-02T01:58:12.175Z,0
2018-09-02T01:58:44.149Z,0
2018-09-02T01:59:16.220Z,0
2018-09-02T01:59:48.307Z,0
2018-09-02T02:00:20.339Z,0
2018-09-02T02:00:52.374Z,0
2018-09-02T02:01:24.446Z,0
2018-09-02T02:01:56.566Z,0
2018-09-02T02:02:28.645Z,0
2018-09-02T02:03:00.686Z,0
2018-09-02T02:03:32.757Z,0
2018-09-02T02:04:04.826Z,0
2018-09-02T02:04:36.861Z,0
2018-09-02T02:05:08.943Z,0
2018-09-02T02:05:41.004Z,0
2018-09-02T02:06:13.053Z,0
2018-09-02T02:06:45.104Z,0
2018-09-02T02:07:17.162Z,0
2018-09-02T02:07:49.232Z,0
2018-09-02T02:08:21.305Z,0
2018-09-02T02:08:53.432Z,0
2018-09-02T02:09:25.519Z,0
2018-09-02T02:09:57.542Z,0
2018-09-02T02:10:29.619Z,0
2018-09-02T02:11:01.670Z,0
2018-09-02T02:11:33.715Z,0
2018-09-02T02:12:05.843Z,0
2018-09-02T02:12:37.932Z,0
2018-09-02T02:13:09.978Z,0
2018-09-02T02:13:42.023Z,0
2018-09-02T02:14:14.083Z,0
2018-09-02T02:14:46.107Z,0
2018-09-02T02:15:18.189Z,0
2018-09-02T02:15:50.328Z,0
2018-09-02T02:16:22.410Z,0
2018-09-02T02:16:54.459Z,0
2018-09-02T02:17:26.561Z,0
2018-09-02T02:17:58.687Z,0
2018-09-02T02:18:30.723Z,0
2018-09-02T02:19:02.801Z,0
2018-09-02T02:19:34.874Z,0
2018-09-02T02:20:06.932Z,0
2018-09-02T02:20:38.980Z,0
2018-09-02T02:21:11.052Z,0
2018-09-02T02:21:43.135Z,0
2018-09-02T02:22:15.220Z,0
2018-09-02T02:22:47.341Z,0
2018-09-02T02:23:19.419Z,0
2018-09-02T02:23:51.455Z,0
2018-09-02T02:24:23.512Z,0
2018-09-02T02:24:55.644Z,0
2018-09-02T02:25:28.301Z,0
2018-09-02T02:26:00.341Z,0
2018-09-02T02:26:32.395Z,0
2018-09-02T02:27:04.443Z,0
2018-09-02T02:27:36.524Z,0
2018-09-02T02:28:09.295Z,0
2018-09-02T02:28:41.367Z,0
2018-09-02T02:29:13.470Z,0
2018-09-02T02:29:46.214Z,0
2018-09-02T02:30:18.274Z,0
2018-09-02T02:30:50.302Z,0
2018-09-02T02:31:22.328Z,0
2018-09-02T02:31:54.371Z,0
2018-09-02T02:32:26.432Z,0
2018-09-02T02:32:58.460Z,0
2018-09-02T02:33:30.557Z,0
2018-09-02T02:34:02.597Z,0
2018-09-02T02:34:34.643Z,0
2018-09-02T02:35:06.743Z,0
2018-09-02T02:35:38.888Z,0
2018-09-02T02:36:10.925Z,0
2018-09-02T02:36:42.965Z,0
2018-09-02T02:37:15.008Z,0
2018-09-02T02:37:47.102Z,0
2018-09-02T02:38:19.229Z,0
2018-09-02T02:38:51.400Z,0
2018-09-02T02:39:23.417Z,0
2018-09-02T02:39:55.472Z,0
2018-09-02T02:40:27.520Z,0
2018-09-02T02:40:59.617Z,0
2018-09-02T02:41:31.681Z,0
2018-09-02T02:42:03.757Z,0
2018-09-02T02:42:35.812Z,0
2018-09-02T02:43:07.905Z,0
2018-09-02T02:43:39.937Z,0
2018-09-02T02:44:12.000Z,0
2018-09-02T02:44:44.070Z,0
2018-09-02T02:45:16.146Z,0
2018-09-02T02:45:48.172Z,0
2018-09-02T02:46:20.228Z,0
2018-09-02T02:46:52.276Z,0
2018-09-02T02:47:24.475Z,0
2018-09-02T02:47:56.635Z,0
2018-09-02T02:48:28.751Z,0
2018-09-02T02:49:00.797Z,0
2018-09-02T02:49:32.859Z,0
2018-09-02T02:50:04.877Z,0
2018-09-02T02:50:36.923Z,0
2018-09-02T02:51:08.943Z,0
2018-09-02T02:51:41.018Z,0
2018-09-02T02:52:13.089Z,0
2018-09-02T02:52:45.130Z,0
2018-09-02T02:53:17.170Z,0
2018-09-02T02:53:49.229Z,0
2018-09-02T02:54:22.217Z,0
2018-09-02T02:54:54.288Z,0
2018-09-02T02:55:26.335Z,0
2018-09-02T02:55:58.485Z,0
2018-09-02T02:56:30.493Z,0
2018-09-02T02:57:02.597Z,0
2018-09-02T02:57:34.649Z,0
2018-09-02T02:58:06.793Z,0
2018-09-02T02:58:38.792Z,0
2018-09-02T02:59:10.811Z,0
2018-09-02T02:59:42.868Z,0
2018-09-02T03:00:14.933Z,0
2018-09-02T03:00:47.146Z,0
2018-09-02T03:01:19.191Z,0
2018-09-02T03:01:51.273Z,0
2018-09-02T03:02:23.304Z,0
2018-09-02T03:02:55.355Z,0
2018-09-02T03:03:27.401Z,0
2018-09-02T03:03:59.417Z,0
2018-09-02T03:04:31.492Z,0
2018-09-02T03:05:03.635Z,0
2018-09-02T03:05:35.721Z,0
2018-09-02T03:06:07.771Z,0
2018-09-02T03:06:39.853Z,0
2018-09-02T03:07:11.935Z,0
2018-09-02T03:07:44.011Z,0
2018-09-02T03:08:16.096Z,0
2018-09-02T03:08:48.144Z,0
2018-09-02T03:09:20.215Z,0
2018-09-02T03:09:52.390Z,0
2018-09-02T03:10:24.475Z,0
2018-09-02T03:10:56.584Z,0
2018-09-02T03:11:28.672Z,0
2018-09-02T03:12:00.735Z,0
2018-09-02T03:12:33.433Z,0
2018-09-02T03:13:05.476Z,0
2018-09-02T03:13:37.541Z,0
2018-09-02T03:14:09.614Z,0
2018-09-02T03:14:41.659Z,0
2018-09-02T03:15:13.697Z,0
2018-09-02T03:15:45.818Z,0
2018-09-02T03:16:18.750Z,0
2018-09-02T03:16:50.810Z,0
2018-09-02T03:17:22.880Z,0
2018-09-02T03:17:54.946Z,0
2018-09-02T03:18:27.018Z,0
2018-09-02T03:18:59.095Z,0
2018-09-02T03:19:31.159Z,0
2018-09-02T03:20:03.206Z,0
2018-09-02T03:20:35.279Z,0
2018-09-02T03:21:07.337Z,0
2018-09-02T03:21:39.462Z,0
2018-09-02T03:22:11.539Z,0
2018-09-02T03:22:43.607Z,0
2018-09-02T03:23:15.668Z,0
2018-09-02T03:23:47.700Z,0
2018-09-02T03:24:19.792Z,0
2018-09-02T03:24:52.746Z,0
2018-09-02T03:25:24.779Z,0
2018-09-02T03:25:56.862Z,0
2018-09-02T03:26:28.917Z,0
2018-09-02T03:27:00.992Z,0
2018-09-02T03:27:33.048Z,0
2018-09-02T03:28:05.204Z,0
2018-09-02T03:28:37.279Z,0
2018-09-02T03:29:09.365Z,0
2018-09-02T03:29:41.416Z,0
2018-09-02T03:30:13.575Z,0
2018-09-02T03:30:45.660Z,0
2018-09-02T03:31:17.748Z,0
2018-09-02T03:31:49.800Z,0
2018-09-02T03:32:21.851Z,0
2018-09-02T03:32:53.919Z,0
2018-09-02T03:33:25.990Z,0
2018-09-02T03:33:57.991Z,0
2018-09-02T03:34:30.070Z,0
2018-09-02T03:35:02.164Z,0
2018-09-02T03:35:34.301Z,0
2018-09-02T03:36:06.348Z,0
2018-09-02T03:36:38.431Z,0
2018-09-02T03:37:10.419Z,0
2018-09-02T03:37:42.507Z,0
2018-09-02T03:38:14.585Z,0
2018-09-02T03:38:46.659Z,0
2018-09-02T03:39:18.655Z,0
2018-09-02T03:39:50.836Z,0
2018-09-02T03:40:22.941Z,0
2018-09-02T03:40:54.978Z,0
2018-09-02T03:41:27.075Z,0
2018-09-02T03:41:59.121Z,0
2018-09-02T03:42:31.204Z,0
2018-09-02T03:43:03.284Z,0
2018-09-02T03:43:35.315Z,0
2018-09-02T03:44:07.351Z,0
2018-09-02T03:44:39.503Z,0
2018-09-02T03:45:11.552Z,0
2018-09-02T03:45:43.617Z,0
2018-09-02T03:46:15.676Z,0
2018-09-02T03:46:47.714Z,0
2018-09-02T03:47:19.785Z,0
2018-09-02T03:47:51.860Z,0
2018-09-02T03:48:23.894Z,0
2018-09-02T03:48:55.981Z,0
2018-09-02T03:49:28.130Z,0
2018-09-02T03:50:00.191Z,0
2018-09-02T03:50:32.288Z,0
2018-09-02T03:51:04.357Z,0
2018-09-02T03:51:36.412Z,0
2018-09-02T03:52:08.427Z,0
2018-09-02T03:52:40.482Z,0
2018-09-02T03:53:12.505Z,0
2018-09-02T03:53:44.651Z,0
2018-09-02T03:54:16.657Z,0
2018-09-02T03:54:48.673Z,0
2018-09-02T03:55:20.852Z,0
2018-09-02T03:55:52.917Z,0
2018-09-02T03:56:24.962Z,0
2018-09-02T03:56:57.013Z,0
2018-09-02T03:57:29.047Z,0
2018-09-02T03:58:01.161Z,0
2018-09-02T03:58:33.311Z,0
2018-09-02T03:59:05.359Z,0
2018-09-02T03:59:37.424Z,0
2018-09-02T04:00:09.494Z,0
2018-09-02T04:00:41.597Z,0
2018-09-02T04:01:13.649Z,0
2018-09-02T04:01:45.717Z,0
2018-09-02T04:02:17.790Z,0
2018-09-02T04:02:49.842Z,0
2018-09-02T04:03:21.901Z,0
2018-09-02T04:03:53.947Z,0
2018-09-02T04:04:26.005Z,0
2018-09-02T04:04:58.065Z,0
2018-09-02T04:05:30.110Z,0
2018-09-02T04:06:02.153Z,0
2018-09-02T04:06:34.225Z,0
2018-09-02T04:07:07.103Z,0
2018-09-02T04:07:39.197Z,0
2018-09-02T04:08:11.265Z,0
2018-09-02T04:08:43.327Z,0
2018-09-02T04:09:15.381Z,0
2018-09-02T04:09:47.423Z,0
2018-09-02T04:10:19.555Z,0
2018-09-02T04:10:51.633Z,0
2018-09-02T04:11:23.757Z,0
2018-09-02T04:11:55.813Z,0
2018-09-02T04:12:27.920Z,0
2018-09-02T04:12:59.995Z,0
2018-09-02T04:13:32.073Z,0
2018-09-02T04:14:04.162Z,4
2018-09-02T04:14:36.221Z,4
2018-09-02T04:15:08.300Z,4
2018-09-02T04:15:40.375Z,0
2018-09-02T04:16:12.407Z,0
2018-09-02T04:16:44.520Z,4
2018-09-02T04:17:16.603Z,4
2018-09-02T04:17:48.655Z,4
2018-09-02T04:18:20.706Z,4
2018-09-02T04:18:52.782Z,4
2018-09-02T04:19:24.873Z,4
2018-09-02T04:19:56.939Z,4
2018-09-02T04:20:29.077Z,8
2018-09-02T04:21:01.120Z,8
2018-09-02T04:21:33.175Z,4
2018-09-02T04:22:05.252Z,8
2018-09-02T04:22:37.306Z,8
2018-09-02T04:23:09.361Z,8
2018-09-02T04:23:41.403Z,8
2018-09-02T04:24:13.466Z,12
2018-09-02T04:24:45.617Z,8
2018-09-02T04:25:17.742Z,12
2018-09-02T04:25:49.732Z,12
2018-09-02T04:26:21.784Z,12
2018-09-02T04:26:53.852Z,12
2018-09-02T04:27:25.961Z,16
2018-09-02T04:27:57.989Z,16
2018-09-02T04:28:29.986Z,16
2018-09-02T04:29:02.017Z,16
2018-09-02T04:29:34.129Z,20
2018-09-02T04:30:06.242Z,20
2018-09-02T04:30:38.281Z,24
2018-09-02T04:31:10.377Z,24
2018-09-02T04:31:42.413Z,24
2018-09-02T04:32:14.437Z,32
2018-09-02T04:32:46.486Z,32
2018-09-02T04:33:18.531Z,32
2018-09-02T04:33:50.651Z,36
2018-09-02T04:34:22.671Z,36
2018-09-02T04:34:54.719Z,40
2018-09-02T04:35:26.765Z,40
2018-09-02T04:35:58.831Z,44
2018-09-02T04:36:30.868Z,48
2018-09-02T04:37:02.929Z,48
2018-09-02T04:37:35.099Z,52
2018-09-02T04:38:07.134Z,56
2018-09-02T04:38:39.212Z,60
2018-09-02T04:39:11.253Z,64
2018-09-02T04:39:43.341Z,68
2018-09-02T04:40:15.489Z,68
2018-09-02T04:40:47.645Z,72
2018-09-02T04:41:20.279Z,80
2018-09-02T04:41:52.403Z,80
2018-09-02T04:42:24.458Z,84
2018-09-02T04:42:56.544Z,88
2018-09-02T04:43:28.600Z,92
2018-09-02T04:44:00.656Z,96
2018-09-02T04:44:32.638Z,100
2018-09-02T04:45:04.757Z,104
2018-09-02T04:45:36.813Z,108
2018-09-02T04:46:08.881Z,108
2018-09-02T04:46:40.927Z,116
2018-09-02T04:47:13.012Z,120
2018-09-02T04:47:45.069Z,124
2018-09-02T04:48:17.120Z,128
2018-09-02T04:48:49.208Z,132
2018-09-02T04:49:21.256Z,136
2018-09-02T04:49:53.870Z,136
2018-09-02T04:50:25.967Z,144
2018-09-02T04:50:58.073Z,148
2018-09-02T04:51:30.100Z,152
2018-09-02T04:52:02.141Z,156
2018-09-02T04:52:34.187Z,164
2018-09-02T04:53:06.678Z,164
2018-09-02T04:53:38.717Z,172
2018-09-02T04:54:10.821Z,176
2018-09-02T04:54:43.001Z,176
2018-09-02T04:55:15.025Z,184
2018-09-02T04:55:47.051Z,188
2018-09-02T04:56:19.176Z,192
2018-09-02T04:56:51.223Z,196
2018-09-02T04:57:23.386Z,204
2018-09-02T04:57:55.425Z,208
2018-09-02T04:58:27.476Z,212
2018-09-02T04:58:59.560Z,220
2018-09-02T04:59:31.595Z,224
2018-09-02T05:00:03.742Z,228
2018-09-02T05:00:35.792Z,236
2018-09-02T05:01:07.878Z,240
2018-09-02T05:01:39.939Z,248
2018-09-02T05:02:11.980Z,252
2018-09-02T05:02:44.008Z,260
2018-09-02T05:03:16.091Z,268
2018-09-02T05:03:48.137Z,268
2018-09-02T05:04:20.213Z,276
2018-09-02T05:04:52.263Z,280
2018-09-02T05:05:24.327Z,288
2018-09-02T05:05:56.387Z,296
2018-09-02T05:06:28.414Z,304
2018-09-02T05:07:00.483Z,312
2018-09-02T05:07:33.136Z,320
2018-09-02T05:08:05.172Z,332
2018-09-02T05:08:37.183Z,340
2018-09-02T05:09:09.251Z,348
2018-09-02T05:09:41.326Z,356
2018-09-02T05:10:13.869Z,364
2018-09-02T05:10:45.962Z,372
2018-09-02T05:11:18.022Z,384
2018-09-02T05:11:50.095Z,388
2018-09-02T05:12:22.282Z,396
2018-09-02T05:12:54.350Z,408
2018-09-02T05:13:26.392Z,412
2018-09-02T05:13:58.460Z,424
2018-09-02T05:14:30.596Z,432
2018-09-02T05:15:02.687Z,444
2018-09-02T05:15:34.741Z,452
2018-09-02T05:16:06.785Z,460
2018-09-02T05:16:38.830Z,476
2018-09-02T05:17:10.964Z,484
2018-09-02T05:17:43.043Z,496
2018-09-02T05:18:15.081Z,504
2018-09-02T05:18:47.154Z,520
2018-09-02T05:19:19.236Z,532
2018-09-02T05:19:51.309Z,544
2018-09-02T05:20:23.350Z,556
2018-09-02T05:20:55.334Z,564
2018-09-02T05:21:27.476Z,576
2018-09-02T05:21:59.621Z,588
2018-09-02T05:22:31.663Z,596
2018-09-02T05:23:03.748Z,612
2018-09-02T05:23:35.786Z,620
2018-09-02T05:24:07.814Z,632
2018-09-02T05:24:40.005Z,644
2018-09-02T05:25:12.082Z,652
2018-09-02T05:25:44.111Z,664
2018-09-02T05:26:16.071Z,672
2018-09-02T05:26:48.734Z,684
2018-09-02T05:27:20.776Z,688
2018-09-02T05:27:52.828Z,696
2018-09-02T05:28:24.929Z,704
2018-09-02T05:28:56.998Z,712
2018-09-02T05:29:29.074Z,716
2018-09-02T05:30:01.152Z,724
2018-09-02T05:30:33.213Z,728
2018-09-02T05:31:05.263Z,736
2018-09-02T05:31:37.292Z,744
2018-09-02T05:32:09.340Z,752
2018-09-02T05:32:41.422Z,760
2018-09-02T05:33:13.458Z,764
2018-09-02T05:33:45.475Z,768
2018-09-02T05:34:17.523Z,776
2018-09-02T05:34:49.571Z,780
2018-09-02T05:35:21.765Z,788
2018-09-02T05:35:53.842Z,788
2018-09-02T05:36:25.890Z,792
2018-09-02T05:36:57.967Z,796
2018-09-02T05:37:30.064Z,804
2018-09-02T05:38:02.128Z,804
2018-09-02T05:38:34.203Z,816
2018-09-02T05:39:06.252Z,820
2018-09-02T05:39:38.248Z,828
2018-09-02T05:40:10.280Z,844
2018-09-02T05:40:42.359Z,848
2018-09-02T05:41:14.359Z,860
2018-09-02T05:41:46.388Z,864
2018-09-02T05:42:18.452Z,876
2018-09-02T05:42:50.534Z,888
2018-09-02T05:43:22.666Z,900
2018-09-02T05:43:54.774Z,900
2018-09-02T05:44:26.789Z,900
2018-09-02T05:44:58.831Z,900
2018-09-02T05:45:30.889Z,900
2018-09-02T05:46:02.939Z,900
2018-09-02T05:46:34.974Z,904
2018-09-02T05:47:07.064Z,908
2018-09-02T05:47:39.117Z,916
2018-09-02T05:48:11.208Z,924
2018-09-02T05:48:43.874Z,932
2018-09-02T05:49:16.063Z,936
2018-09-02T05:49:48.132Z,944
2018-09-02T05:50:20.241Z,952
2018-09-02T05:50:52.265Z,960
2018-09-02T05:51:24.311Z,968
2018-09-02T05:51:56.363Z,976
2018-09-02T05:52:28.455Z,988
2018-09-02T05:53:00.507Z,992
2018-09-02T05:53:32.559Z,996
2018-09-02T05:54:04.624Z,1000
2018-09-02T05:54:36.691Z,1016
2018-09-02T05:55:08.776Z,1040
2018-09-02T05:55:40.845Z,1060
2018-09-02T05:56:12.836Z,1076
2018-09-02T05:56:44.928Z,1100
2018-09-02T05:57:16.999Z,1148
2018-09-02T05:57:49.089Z,1224
2018-09-02T05:58:21.135Z,1360
2018-09-02T05:58:53.155Z,1564
2018-09-02T05:59:25.222Z,1764
2018-09-02T05:59:57.393Z,1920
2018-09-02T06:00:29.418Z,1988
2018-09-02T06:01:01.477Z,2036
2018-09-02T06:01:33.556Z,2056
2018-09-02T06:02:05.655Z,2072
2018-09-02T06:02:37.725Z,2088
2018-09-02T06:03:09.823Z,2100
2018-09-02T06:03:41.853Z,2104
2018-09-02T06:04:13.922Z,2120
2018-09-02T06:04:46.096Z,2144
2018-09-02T06:05:18.175Z,2164
2018-09-02T06:05:50.137Z,2176
2018-09-02T06:06:22.259Z,2192
2018-09-02T06:06:54.437Z,2200
2018-09-02T06:07:26.502Z,2208
2018-09-02T06:07:58.556Z,2212
2018-09-02T06:08:30.628Z,2220
2018-09-02T06:09:02.672Z,2220
2018-09-02T06:09:34.749Z,2232
2018-09-02T06:10:06.793Z,2244
2018-09-02T06:10:38.827Z,2268
2018-09-02T06:11:10.912Z,2296
2018-09-02T06:11:43.075Z,2304
2018-09-02T06:12:15.137Z,2316
2018-09-02T06:12:47.195Z,2332
2018-09-02T06:13:19.256Z,2336
2018-09-02T06:13:51.275Z,2360
2018-09-02T06:14:23.260Z,2376
2018-09-02T06:14:55.312Z,2384
2018-09-02T06:15:27.441Z,2400
2018-09-02T06:15:59.515Z,2404
2018-09-02T06:16:31.581Z,2416
2018-09-02T06:17:03.619Z,2436
2018-09-02T06:17:35.693Z,2448
2018-09-02T06:18:07.831Z,2476
2018-09-02T06:18:39.833Z,2500
2018-09-02T06:19:11.892Z,2520
2018-09-02T06:19:43.956Z,2536
2018-09-02T06:20:16.043Z,2540
2018-09-02T06:20:48.041Z,2560
2018-09-02T06:21:20.049Z,2580
2018-09-02T06:21:52.112Z,2580
2018-09-02T06:22:24.113Z,2592
2018-09-02T06:22:56.200Z,2588
2018-09-02T06:23:28.319Z,2592
2018-09-02T06:24:00.473Z,2600
2018-09-02T06:24:32.523Z,2612
2018-09-02T06:25:04.530Z,2624
2018-09-02T06:25:36.586Z,2640
2018-09-02T06:26:08.743Z,2648
2018-09-02T06:26:40.793Z,2648
2018-09-02T06:27:12.879Z,2652
2018-09-02T06:27:44.919Z,2672
2018-09-02T06:28:16.988Z,2676
2018-09-02T06:28:49.032Z,2660
2018-09-02T06:29:21.045Z,2632
2018-09-02T06:29:53.222Z,2632
2018-09-02T06:30:25.276Z,2612
2018-09-02T06:30:57.319Z,2612
2018-09-02T06:31:29.518Z,2600
2018-09-02T06:32:01.573Z,2616
2018-09-02T06:32:33.607Z,2640
2018-09-02T06:33:05.685Z,2660
2018-09-02T06:33:37.754Z,2684
2018-09-02T06:34:09.855Z,2700
2018-09-02T06:34:42.010Z,2708
2018-09-02T06:35:14.092Z,2708
2018-09-02T06:35:46.116Z,2708
2018-09-02T06:36:18.326Z,2724
2018-09-02T06:36:50.401Z,2744
2018-09-02T06:37:22.437Z,2768
2018-09-02T06:37:54.469Z,2796
2018-09-02T06:38:26.564Z,2812
2018-09-02T06:38:58.633Z,2828
2018-09-02T06:39:30.749Z,2840
2018-09-02T06:40:02.775Z,2856
2018-09-02T06:40:34.839Z,2884
2018-09-02T06:41:06.868Z,2908
2018-09-02T06:41:38.885Z,2936
2018-09-02T06:42:10.881Z,2920
2018-09-02T06:42:42.914Z,2944
2018-09-02T06:43:14.965Z,2964
2018-09-02T06:43:47.030Z,2960
2018-09-02T06:44:19.172Z,2980
2018-09-02T06:44:51.254Z,2988
2018-09-02T06:45:23.335Z,3004
2018-09-02T06:45:55.355Z,3016
2018-09-02T06:46:27.407Z,3032
2018-09-02T06:46:59.486Z,3044
2018-09-02T06:47:31.645Z,3040
2018-09-02T06:48:03.701Z,3036
2018-09-02T06:48:35.746Z,3040
2018-09-02T06:49:07.815Z,3056
2018-09-02T06:49:39.894Z,3068
2018-09-02T06:50:11.950Z,3084
2018-09-02T06:50:44.016Z,3100
2018-09-02T06:51:16.060Z,3112
2018-09-02T06:51:48.194Z,3144
2018-09-02T06:52:20.251Z,3144
2018-09-02T06:52:52.344Z,3148
2018-09-02T06:53:24.416Z,3160
2018-09-02T06:53:56.568Z,3180
2018-09-02T06:54:28.735Z,3192
2018-09-02T06:55:00.834Z,3196
2018-09-02T06:55:32.923Z,3216
2018-09-02T06:56:04.973Z,3224
2018-09-02T06:56:37.043Z,3240
2018-09-02T06:57:09.089Z,3252
2018-09-02T06:57:41.128Z,3256
2018-09-02T06:58:13.160Z,3256
2018-09-02T06:58:45.362Z,3264
2018-09-02T06:59:17.308Z,3256
2018-09-02T06:59:49.359Z,3276
2018-09-02T07:00:21.442Z,3292
2018-09-02T07:00:53.513Z,3304
2018-09-02T07:01:25.604Z,3304
2018-09-02T07:01:57.624Z,3300
2018-09-02T07:02:29.779Z,3304
2018-09-02T07:03:01.804Z,3332
2018-09-02T07:03:33.863Z,3348
2018-09-02T07:04:06.840Z,3360
2018-09-02T07:04:38.881Z,3384
2018-09-02T07:05:10.953Z,3404
2018-09-02T07:05:43.051Z,3408
2018-09-02T07:06:15.079Z,3416
2018-09-02T07:06:47.144Z,3440
2018-09-02T07:07:19.334Z,3460
2018-09-02T07:07:51.329Z,3464
2018-09-02T07:08:23.430Z,3488
2018-09-02T07:08:55.630Z,3508
2018-09-02T07:09:27.709Z,3524
2018-09-02T07:09:59.739Z,3532
2018-09-02T07:10:31.829Z,3560
2018-09-02T07:11:03.832Z,3584
2018-09-02T07:11:35.921Z,3592
2018-09-02T07:12:07.980Z,3616
2018-09-02T07:12:39.983Z,3628
2018-09-02T07:13:12.850Z,3664
2018-09-02T07:13:44.940Z,3672
2018-09-02T07:14:17.124Z,3668
2018-09-02T07:14:49.239Z,3684
2018-09-02T07:15:21.355Z,3700
2018-09-02T07:15:53.422Z,3740
2018-09-02T07:16:25.509Z,3756
2018-09-02T07:16:57.555Z,3764
2018-09-02T07:17:29.699Z,3788
2018-09-02T07:18:01.854Z,3772
2018-09-02T07:18:33.921Z,3796
2018-09-02T07:19:05.956Z,3800
2018-09-02T07:19:38.044Z,3796
2018-09-02T07:20:10.172Z,3808
2018-09-02T07:20:42.196Z,3836
2018-09-02T07:21:14.242Z,3860
2018-09-02T07:21:46.322Z,3876
2018-09-02T07:22:18.402Z,3876
2018-09-02T07:22:50.492Z,3884
2018-09-02T07:23:22.537Z,3892
2018-09-02T07:23:54.581Z,3904
2018-09-02T07:24:26.646Z,3912
2018-09-02T07:24:59.446Z,3920
2018-09-02T07:25:31.469Z,3916
2018-09-02T07:26:03.574Z,3932
2018-09-02T07:26:35.625Z,3932
2018-09-02T07:27:07.681Z,3944
2018-09-02T07:27:39.676Z,3956
2018-09-02T07:28:12.261Z,3964
2018-09-02T07:28:44.298Z,3972
2018-09-02T07:29:16.299Z,3972
2018-09-02T07:29:48.357Z,3980
2018-09-02T07:30:20.427Z,4012
2018-09-02T07:30:52.461Z,4036
2018-09-02T07:31:24.703Z,4040
2018-09-02T07:31:56.722Z,4048
2018-09-02T07:32:28.751Z,4048
2018-09-02T07:33:00.768Z,4048
2018-09-02T07:33:32.803Z,4056
2018-09-02T07:34:04.959Z,4064
2018-09-02T07:34:37.070Z,4068
2018-09-02T07:35:09.119Z,4076
2018-09-02T07:35:41.175Z,4092
2018-09-02T07:36:13.234Z,4092
2018-09-02T07:36:45.264Z,4120